Time;durP1;ratioP1;P1;durP2;ratioP2;P2;SDS_P1;SDS_P2;PMS_P1;PMS_P2;Temp;Humidity;BMP_temperature;BMP_pressure;BME280_temperature;BME280_humidity;BME280_pressure;Samples;Min_cycle;Max_cycle;Signal;HPM_P1;HPM_P2
2022/04/27 00:01:35;;;;;;;;;;;;;;;7.52;80.79;100986.66;5085439;28;1612;-91
2022/04/27 00:04:01;;;;;;;;;;;;;;;7.49;80.12;100989.06;5074768;28;1542;-90
2022/04/27 00:06:26;;;;;;;;;;;;;;;7.44;80.39;100988.97;5078913;28;1442;-91
2022/04/27 00:08:51;;;;;;;;;;;;;;;7.38;79.29;100987.25;5079228;28;1321;-90
2022/04/27 00:11:16;;;;;;;;;;;;;;;7.54;80.55;100991.88;5088138;28;1886;-91
2022/04/27 00:13:41;;;;;;;;;;;;;;;7.54;80.08;100994.59;5079107;28;1227;-91
2022/04/27 00:16:06;;;;;;;;;;;;;;;7.41;79.86;100995.75;5078344;28;1660;-91
2022/04/27 00:18:32;;;;;;;;;;;;;;;7.33;79.57;100992.59;5068096;28;1522;-90
2022/04/27 00:20:57;;;;;;;;;;;;;;;7.32;79.75;100996.41;5078407;28;1558;-90
2022/04/27 00:23:25;;;;;;;;;;;;;;;7.21;79.10;100995.41;5096104;28;1401;-91
2022/04/27 00:25:50;;;;;;;;;;;;;;;7.09;79.31;100992.75;5078285;28;1689;-89
2022/04/27 00:28:15;;;;;;;;;;;;;;;7.10;80.00;100997.13;5076923;28;1581;-90
2022/04/27 00:30:40;;;;;;;;;;;;;;;7.10;80.19;100996.31;5078212;28;1985;-91
2022/04/27 00:33:06;;;;;;;;;;;;;;;6.95;78.89;100993.31;5073445;28;1463;-91
2022/04/27 00:35:31;;;;;;;;;;;;;;;6.65;80.12;100990.84;5072876;28;1211;-90
2022/04/27 00:37:56;;;;;;;;;;;;;;;6.69;80.49;100987.41;5078586;28;1071;-91
2022/04/27 00:40:21;;;;;;;;;;;;;;;6.78;79.79;100993.28;5073848;28;1410;-89
2022/04/27 00:42:46;;;;;;;;;;;;;;;6.84;79.39;100995.00;5066069;28;1814;-91
2022/04/27 00:45:11;;;;;;;;;;;;;;;6.86;79.84;100997.50;5078127;28;1070;-91
2022/04/27 00:47:37;;;;;;;;;;;;;;;6.81;79.33;100990.06;5078173;28;1775;-91
2022/04/27 00:50:02;;;;;;;;;;;;;;;6.75;79.62;100996.47;5077795;28;1957;-91
2022/04/27 00:52:28;;;;;;;;;;;;;;;6.95;80.38;101001.47;5078313;28;1246;-91
2022/04/27 00:54:55;;;;;;;;;;;;;;;7.06;79.71;101009.56;5074504;28;1526;-92
2022/04/27 00:57:22;;;;;;;;;;;;;;;7.06;79.48;101001.41;5095200;28;1606;-91
2022/04/27 00:59:47;;;;;;;;;;;;;;;6.81;78.37;101012.66;5077837;28;1376;-90
2022/04/27 01:02:12;;;;;;;;;;;;;;;6.73;78.74;101010.31;5077999;28;1374;-91
2022/04/27 01:04:38;;;;;;;;;;;;;;;6.64;79.12;101010.94;5075487;28;1751;-91
2022/04/27 01:07:03;;;;;;;;;;;;;;;6.23;79.82;101009.28;5078048;28;1491;-91
2022/04/27 01:09:29;;;;;;;;;;;;;;;6.34;80.24;101014.72;5077962;28;1889;-91
2022/04/27 01:11:55;;;;;;;;;;;;;;;6.39;80.57;101025.69;5077702;28;1577;-90
2022/04/27 01:14:21;;;;;;;;;;;;;;;6.45;79.64;101016.56;5077160;28;1490;-91
2022/04/27 01:16:50;;;;;;;;;;;;;;;6.42;80.04;101024.38;5076787;28;1798;-90
2022/04/27 01:19:16;;;;;;;;;;;;;;;6.06;79.21;101025.50;5077636;28;1487;-90
2022/04/27 01:21:41;;;;;;;;;;;;;;;6.03;79.67;101026.81;5072853;28;1329;-91
2022/04/27 01:24:06;;;;;;;;;;;;;;;5.92;79.40;101034.97;5076020;28;1502;-90
2022/04/27 01:26:33;;;;;;;;;;;;;;;5.69;80.75;101033.06;5077865;28;1128;-91
2022/04/27 01:28:59;;;;;;;;;;;;;;;5.95;80.09;101040.78;5077028;28;1322;-90
2022/04/27 01:31:24;;;;;;;;;;;;;;;5.70;78.88;101030.06;5069067;28;1901;-90
2022/04/27 01:33:49;;;;;;;;;;;;;;;5.78;80.14;101036.25;5076369;28;1779;-90
2022/04/27 01:36:14;;;;;;;;;;;;;;;6.01;79.72;101039.81;5095712;28;1101;-91
2022/04/27 01:38:40;;;;;;;;;;;;;;;6.03;79.75;101045.84;5077519;28;1214;-91
2022/04/27 01:41:06;;;;;;;;;;;;;;;6.12;78.80;101038.16;5077148;28;1746;-89
2022/04/27 01:43:31;;;;;;;;;;;;;;;5.77;79.08;101040.03;5090408;28;1454;-90
2022/04/27 01:45:56;;;;;;;;;;;;;;;5.48;80.39;101049.91;5069410;28;1749;-92
2022/04/27 01:48:22;;;;;;;;;;;;;;;5.72;80.78;101046.97;5095081;28;1562;-91
2022/04/27 01:50:47;;;;;;;;;;;;;;;5.75;80.42;101053.84;5082040;28;1886;-91
2022/04/27 01:55:57;;;;;;;;;;;;;;;6.01;79.15;101049.84;5081914;28;1305;-91
2022/04/27 01:58:22;;;;;;;;;;;;;;;5.92;78.89;101045.84;5077301;28;1414;-91
2022/04/27 02:00:48;;;;;;;;;;;;;;;5.96;79.45;101055.97;5076582;28;1487;-90
2022/04/27 02:03:18;;;;;;;;;;;;;;;6.01;80.35;101064.28;5076166;28;1629;-89
2022/04/27 02:05:43;;;;;;;;;;;;;;;6.08;79.12;101062.25;5076809;28;1555;-91
2022/04/27 02:08:08;;;;;;;;;;;;;;;5.65;79.65;101067.16;5076906;28;1323;-90
2022/04/27 02:10:34;;;;;;;;;;;;;;;5.59;79.94;101065.38;5073110;28;1965;-91
2022/04/27 02:13:00;;;;;;;;;;;;;;;5.70;79.06;101065.38;5070226;28;1736;-91
2022/04/27 02:15:25;;;;;;;;;;;;;;;5.66;79.98;101074.25;5076271;28;1463;-91
2022/04/27 02:17:50;;;;;;;;;;;;;;;5.82;80.77;101070.00;5073666;28;1362;-90
2022/04/27 02:20:18;;;;;;;;;;;;;;;5.92;79.49;101076.56;5076101;28;1777;-91
2022/04/27 02:22:43;;;;;;;;;;;;;;;5.78;79.22;101083.25;5066594;28;1409;-91
2022/04/27 02:25:08;;;;;;;;;;;;;;;5.79;80.81;101078.63;5067289;28;1465;-90
2022/04/27 02:27:33;;;;;;;;;;;;;;;5.69;78.78;101088.19;5072156;28;1735;-90
2022/04/27 02:29:58;;;;;;;;;;;;;;;5.58;78.20;101085.44;5064966;28;1898;-90
2022/04/27 02:32:23;;;;;;;;;;;;;;;5.53;79.31;101085.34;5075303;28;1843;-91
2022/04/27 02:34:51;;;;;;;;;;;;;;;5.52;78.82;101084.50;5075828;28;1450;-91
2022/04/27 02:37:16;;;;;;;;;;;;;;;5.43;79.65;101091.34;5076477;28;1275;-91
2022/04/27 02:39:41;;;;;;;;;;;;;;;5.10;79.41;101094.53;5076414;28;1494;-90
2022/04/27 02:42:07;;;;;;;;;;;;;;;5.23;80.21;101085.34;5075976;28;1810;-91
2022/04/27 02:44:32;;;;;;;;;;;;;;;5.19;78.97;101106.69;5074744;28;1301;-91
2022/04/27 02:46:57;;;;;;;;;;;;;;;5.16;79.85;101101.75;5094203;28;1134;-91
2022/04/27 02:52:07;;;;;;;;;;;;;;;5.19;79.89;101116.75;5073383;28;1506;-91
2022/04/27 02:54:32;;;;;;;;;;;;;;;5.11;78.63;101114.31;5086354;28;1727;-91
2022/04/27 02:56:58;;;;;;;;;;;;;;;5.15;78.13;101118.25;5076140;28;1012;-91
2022/04/27 02:59:23;;;;;;;;;;;;;;;5.13;78.79;101117.63;5075738;28;1715;-89
2022/04/27 03:01:48;;;;;;;;;;;;;;;5.22;78.58;101118.97;5075212;28;1422;-90
2022/04/27 03:04:13;;;;;;;;;;;;;;;5.29;79.24;101111.56;5075033;28;1466;-90
2022/04/27 03:06:39;;;;;;;;;;;;;;;5.31;78.53;101115.72;5075596;28;1204;-91
2022/04/27 03:09:04;;;;;;;;;;;;;;;5.34;78.72;101114.44;5076140;28;1216;-90
2022/04/27 03:11:29;;;;;;;;;;;;;;;5.27;78.80;101116.41;5075374;28;1950;-90
2022/04/27 03:13:54;;;;;;;;;;;;;;;5.38;79.37;101115.63;5070490;28;1113;-91
2022/04/27 03:16:19;;;;;;;;;;;;;;;5.32;79.56;101125.53;5073254;28;1886;-90
2022/04/27 03:18:45;;;;;;;;;;;;;;;5.44;80.06;101120.13;5075553;28;1499;-91
2022/04/27 14:43:30;;;;;;;;;;;;;;;21.57;34.85;101240.72;5022380;28;1716;-91
2022/04/27 14:45:55;;;;;;;;;;;;;;;21.42;35.34;101247.69;5015034;28;1020;-91
2022/04/27 14:48:21;;;;;;;;;;;;;;;21.14;36.05;101249.25;5001147;28;1757;-92
2022/04/27 14:50:47;;;;;;;;;;;;;;;21.41;35.98;101246.06;5006403;28;1641;-90
2022/04/27 14:53:12;;;;;;;;;;;;;;;20.68;35.66;101250.84;5032573;28;1574;-91
2022/04/27 14:55:38;;;;;;;;;;;;;;;20.76;37.12;101250.00;5032000;28;1339;-90
2022/04/27 14:58:03;;;;;;;;;;;;;;;19.63;37.62;101253.09;5019577;28;1261;-91
2022/04/27 15:00:28;;;;;;;;;;;;;;;19.77;38.02;101248.19;5018575;28;1910;-90
2022/04/27 15:02:54;;;;;;;;;;;;;;;18.98;39.68;101250.16;5005207;28;1415;-89
2022/04/27 15:05:20;;;;;;;;;;;;;;;18.84;40.13;101241.94;5032302;28;1507;-91
2022/04/27 15:07:45;;;;;;;;;;;;;;;18.99;39.49;101244.31;5036100;28;1598;-90
2022/04/27 15:10:11;;;;;;;;;;;;;;;19.71;38.78;101246.72;5052742;28;1563;-91
2022/04/27 15:12:36;;;;;;;;;;;;;;;20.40;37.63;101255.16;5034353;28;1662;-91
2022/04/27 15:15:01;;;;;;;;;;;;;;;20.39;36.29;101245.16;5015318;28;1224;-91
2022/04/27 15:17:27;;;;;;;;;;;;;;;20.63;37.64;101251.03;5015914;28;1584;-91
2022/04/27 15:22:42;;;;;;;;;;;;;;;21.07;36.21;101244.19;5018841;28;1980;-90
2022/04/27 15:25:11;;;;;;;;;;;;;;;20.31;36.55;101257.09;5018264;28;1648;-92
2022/04/27 15:27:36;;;;;;;;;;;;;;;20.27;36.02;101254.13;5017705;28;1229;-91
2022/04/27 15:30:02;;;;;;;;;;;;;;;19.70;37.76;101249.81;5015830;28;1555;-91
2022/04/27 15:32:27;;;;;;;;;;;;;;;19.89;36.99;101253.97;5012438;28;1500;-91
2022/04/27 15:34:52;;;;;;;;;;;;;;;19.83;37.88;101243.31;5013756;28;1075;-92
2022/04/27 15:37:19;;;;;;;;;;;;;;;20.02;39.34;101244.63;5017002;28;1464;-92
2022/04/27 15:39:45;;;;;;;;;;;;;;;19.49;38.32;101257.94;5018474;28;1326;-90
2022/04/27 15:42:10;;;;;;;;;;;;;;;19.13;40.16;101252.56;5014692;28;1894;-90
2022/04/27 15:44:36;;;;;;;;;;;;;;;19.53;38.55;101253.38;5015139;28;1822;-91
2022/04/27 15:47:02;;;;;;;;;;;;;;;19.63;38.43;101250.31;5015978;28;1426;-90
2022/04/27 15:49:28;;;;;;;;;;;;;;;19.91;38.61;101254.44;5042164;28;1805;-90
2022/04/27 15:51:53;;;;;;;;;;;;;;;18.88;39.36;101254.06;5041403;28;1760;-91
2022/04/27 15:54:18;;;;;;;;;;;;;;;18.87;41.58;101252.41;5023038;28;1718;-91
2022/04/27 15:56:44;;;;;;;;;;;;;;;19.28;39.97;101252.13;5034865;28;1401;-91
2022/04/27 15:59:09;;;;;;;;;;;;;;;19.88;39.69;101257.06;5015743;28;1727;-90
2022/04/27 16:01:35;;;;;;;;;;;;;;;19.70;39.42;101258.16;5030711;28;1874;-92
2022/04/27 16:04:00;;;;;;;;;;;;;;;19.32;37.79;101260.59;5010394;28;1654;-92
2022/04/27 16:06:26;;;;;;;;;;;;;;;19.30;38.79;101258.19;5015667;28;1637;-91
2022/04/27 16:08:51;;;;;;;;;;;;;;;19.33;39.46;101257.53;5033789;28;1094;-91
2022/04/27 16:11:17;;;;;;;;;;;;;;;19.23;38.83;101257.78;5018047;28;1761;-91
2022/04/27 16:13:42;;;;;;;;;;;;;;;19.60;38.29;101253.72;5036673;28;1602;-90
2022/04/27 16:16:08;;;;;;;;;;;;;;;19.90;38.65;101255.59;5016865;28;1766;-89
2022/04/27 16:18:33;;;;;;;;;;;;;;;19.73;37.82;101258.34;5016112;28;1225;-90
2022/04/27 16:23:42;;;;;;;;;;;;;;;20.54;37.44;101257.75;5024546;28;1836;-91
2022/04/27 16:26:08;;;;;;;;;;;;;;;20.27;37.39;101259.69;5038060;28;1568;-88
2022/04/27 16:28:33;;;;;;;;;;;;;;;19.62;37.55;101266.16;5031515;28;1204;-90
2022/04/27 16:30:58;;;;;;;;;;;;;;;19.25;38.34;101259.13;5032728;28;1292;-91
2022/04/27 16:33:24;;;;;;;;;;;;;;;18.79;40.45;101255.97;5016222;28;1471;-90
2022/04/27 16:35:49;;;;;;;;;;;;;;;18.70;41.41;101267.00;5018416;28;1364;-91
2022/04/27 16:38:14;;;;;;;;;;;;;;;18.23;40.85;101273.13;5027091;28;1382;-91
2022/04/27 16:40:39;;;;;;;;;;;;;;;18.35;42.53;101278.94;5012126;28;1910;-90
2022/04/27 16:43:05;;;;;;;;;;;;;;;18.30;40.79;101273.50;5015617;28;1233;-92
2022/04/27 16:45:30;;;;;;;;;;;;;;;18.24;41.31;101275.59;5024322;28;1383;-90
2022/04/27 16:47:55;;;;;;;;;;;;;;;18.22;40.99;101274.25;5013731;28;1567;-90
2022/04/27 16:50:20;;;;;;;;;;;;;;;18.15;40.50;101278.28;5031965;28;1433;-91
2022/04/27 16:52:45;;;;;;;;;;;;;;;18.29;41.99;101281.00;5014791;28;1369;-91
2022/04/27 16:55:11;;;;;;;;;;;;;;;18.30;42.05;101288.19;5018647;28;1260;-90
2022/04/27 16:57:36;;;;;;;;;;;;;;;18.14;42.60;101286.91;5018941;28;1342;-91
2022/04/27 17:02:46;;;;;;;;;;;;;;;17.93;41.84;101281.00;5036806;28;1451;-91
2022/04/27 17:05:12;;;;;;;;;;;;;;;17.68;41.95;101285.16;5018614;28;1244;-90
2022/04/27 17:07:37;;;;;;;;;;;;;;;17.79;43.42;101291.25;5018951;28;1236;-91
2022/04/27 17:10:03;;;;;;;;;;;;;;;17.65;43.05;101290.47;5018873;28;1197;-90
2022/04/27 17:12:28;;;;;;;;;;;;;;;17.53;43.76;101282.63;5018641;28;1327;-91
2022/04/27 17:14:53;;;;;;;;;;;;;;;17.48;43.19;101287.47;5018498;28;881;-91
2022/04/27 17:17:18;;;;;;;;;;;;;;;17.37;44.13;101290.44;5034997;28;1439;-91
2022/04/27 17:19:43;;;;;;;;;;;;;;;17.52;46.08;101288.50;5019139;28;969;-91
2022/04/27 17:22:08;;;;;;;;;;;;;;;17.62;44.75;101291.06;5018410;28;1894;-91
2022/04/27 17:24:35;;;;;;;;;;;;;;;17.61;44.28;101289.41;5018393;28;1181;-91
2022/04/27 17:29:45;;;;;;;;;;;;;;;17.49;46.03;101303.78;5036625;28;615;-91
2022/04/27 17:32:11;;;;;;;;;;;;;;;17.45;44.81;101291.66;5018238;28;1291;-91
2022/04/27 17:34:36;;;;;;;;;;;;;;;17.28;46.06;101305.28;5018498;28;1276;-91
2022/04/27 17:37:01;;;;;;;;;;;;;;;17.09;45.43;101310.91;5018264;28;1316;-91
2022/04/27 17:39:26;;;;;;;;;;;;;;;16.99;45.53;101306.38;5018355;28;1203;-92
2022/04/27 17:41:52;;;;;;;;;;;;;;;17.03;47.16;101312.09;5018101;28;2043;-91
2022/04/27 17:44:18;;;;;;;;;;;;;;;17.05;47.15;101314.56;5017980;28;1350;-91
2022/04/27 17:46:43;;;;;;;;;;;;;;;16.93;46.10;101321.41;5014645;28;1378;-90
2022/04/27 17:49:08;;;;;;;;;;;;;;;16.80;46.01;101321.38;5014732;28;1232;-91
2022/04/27 17:51:34;;;;;;;;;;;;;;;16.71;47.57;101315.72;5014684;28;1359;-91
2022/04/27 17:53:59;;;;;;;;;;;;;;;16.65;48.02;101322.44;5014652;28;1236;-91
2022/04/27 17:56:25;;;;;;;;;;;;;;;16.54;48.36;101323.69;5017588;28;1324;-91
2022/04/27 17:58:50;;;;;;;;;;;;;;;16.16;49.56;101325.66;5014785;28;1348;-91
2022/04/27 18:01:16;;;;;;;;;;;;;;;16.18;49.45;101321.44;5017284;28;1894;-90
2022/04/27 18:03:41;;;;;;;;;;;;;;;16.13;49.42;101326.25;5017393;28;1255;-91
2022/04/27 18:06:06;;;;;;;;;;;;;;;16.03;51.33;101331.91;5017319;28;1375;-91
2022/04/27 18:08:32;;;;;;;;;;;;;;;15.73;50.78;101339.47;5017063;28;1324;-91
2022/04/27 18:10:57;;;;;;;;;;;;;;;15.73;51.87;101333.94;5016856;28;1328;-90
2022/04/27 18:13:22;;;;;;;;;;;;;;;15.57;53.02;101337.97;5017002;28;1364;-91
2022/04/27 18:15:47;;;;;;;;;;;;;;;15.42;52.87;101341.69;5017234;28;1272;-90
2022/04/27 18:18:23;;;;;;;;;;;;;;;15.32;53.26;101350.06;5017433;28;1351;-91
2022/04/27 18:20:48;;;;;;;;;;;;;;;15.16;54.36;101356.84;5033475;28;1890;-91
2022/04/27 18:23:14;;;;;;;;;;;;;;;15.07;54.68;101359.41;5016769;28;1535;-91
2022/04/27 18:25:42;;;;;;;;;;;;;;;15.03;55.03;101363.06;5034781;28;1215;-91
2022/04/27 18:28:07;;;;;;;;;;;;;;;14.76;56.31;101364.38;5018876;28;1216;-91
2022/04/27 18:30:33;;;;;;;;;;;;;;;14.64;57.49;101371.34;4997383;28;1308;-91
2022/04/27 18:33:00;;;;;;;;;;;;;;;14.45;57.12;101373.97;4997116;28;1389;-90
2022/04/27 18:35:28;;;;;;;;;;;;;;;14.38;57.64;101377.03;5014899;28;838;-91
2022/04/27 18:37:56;;;;;;;;;;;;;;;14.28;58.86;101381.75;4997568;28;1335;-91
2022/04/27 18:40:22;;;;;;;;;;;;;;;14.20;61.38;101385.09;5008269;28;1654;-91
2022/04/27 18:42:48;;;;;;;;;;;;;;;14.28;60.37;101388.09;5013710;28;1957;-91
2022/04/27 18:49:57;;;;;;;;;;;;;;;13.91;61.30;101393.19;5015097;28;628;-89
2022/04/27 18:50:42;;;;;;;;;;;;;;;13.84;61.62;101401.75;5014955;28;1386;-91
2022/04/27 18:53:08;;;;;;;;;;;;;;;13.84;61.84;101406.44;5016801;28;1342;-90
2022/04/27 18:55:34;;;;;;;;;;;;;;;13.56;60.83;101405.13;5017035;28;1263;-91
2022/04/27 18:57:59;;;;;;;;;;;;;;;13.56;62.16;101411.47;5016407;28;1396;-91
2022/04/27 19:00:28;;;;;;;;;;;;;;;13.43;61.96;101412.03;5032059;28;1528;-90
2022/04/27 19:02:53;;;;;;;;;;;;;;;13.29;62.35;101423.84;5016341;28;1382;-90
2022/04/27 19:05:19;;;;;;;;;;;;;;;13.20;62.02;101421.66;5015842;28;1205;-91
2022/04/27 19:07:45;;;;;;;;;;;;;;;12.93;64.05;101429.31;5015775;28;1308;-90
2022/04/27 19:10:23;;;;;;;;;;;;;;;12.96;63.69;101428.78;5016072;28;1229;-90
2022/04/27 19:12:48;;;;;;;;;;;;;;;12.99;63.01;101428.25;5015700;28;1275;-91
2022/04/27 19:15:14;;;;;;;;;;;;;;;12.91;63.52;101441.69;5016093;28;843;-90
2022/04/27 19:17:39;;;;;;;;;;;;;;;12.85;63.04;101438.09;5016194;28;909;-90
2022/04/27 19:20:04;;;;;;;;;;;;;;;12.74;62.65;101442.78;5016643;28;1268;-91
2022/04/27 19:22:29;;;;;;;;;;;;;;;12.66;63.28;101435.06;5020216;28;1890;-91
2022/04/27 19:24:54;;;;;;;;;;;;;;;12.58;64.24;101432.84;5032197;28;909;-91
2022/04/27 19:27:20;;;;;;;;;;;;;;;12.56;63.39;101445.19;5030033;28;1255;-91
2022/04/27 19:29:46;;;;;;;;;;;;;;;12.42;64.50;101442.94;5016126;28;1244;-91
2022/04/27 19:32:12;;;;;;;;;;;;;;;12.52;64.22;101445.72;5016157;28;1348;-91
2022/04/27 19:34:37;;;;;;;;;;;;;;;12.39;63.42;101451.75;5015866;28;1233;-91
2022/04/27 19:37:04;;;;;;;;;;;;;;;12.38;64.58;101447.34;5015969;28;1245;-90
2022/04/27 19:39:29;;;;;;;;;;;;;;;12.37;63.71;101453.94;5016172;28;1332;-92
2022/04/27 19:41:54;;;;;;;;;;;;;;;12.25;63.93;101455.28;5014177;28;1890;-93
2022/04/27 19:44:19;;;;;;;;;;;;;;;12.24;64.34;101457.19;5015421;28;1620;-91
2022/04/27 19:46:46;;;;;;;;;;;;;;;12.16;64.40;101460.44;5016824;28;1063;-92
2022/04/27 19:49:11;;;;;;;;;;;;;;;11.93;65.18;101463.59;5028526;28;1328;-91
2022/04/27 19:51:39;;;;;;;;;;;;;;;11.95;64.50;101455.94;5032264;28;1314;-91
2022/04/27 19:54:04;;;;;;;;;;;;;;;11.78;64.30;101456.13;5032304;28;1252;-91
2022/04/27 19:56:30;;;;;;;;;;;;;;;11.64;64.82;101455.72;5019833;28;1219;-91
2022/04/27 19:58:55;;;;;;;;;;;;;;;11.26;66.59;101454.06;5014648;28;1463;-91
2022/04/27 20:01:22;;;;;;;;;;;;;;;11.25;67.27;101459.81;5015857;28;1918;-91
2022/04/27 20:03:47;;;;;;;;;;;;;;;11.20;67.14;101465.25;5015445;28;1342;-91
2022/04/27 20:06:14;;;;;;;;;;;;;;;10.76;67.59;101467.28;5015745;28;1315;-91
2022/04/27 20:08:39;;;;;;;;;;;;;;;10.45;69.28;101477.09;5014518;28;1268;-92
2022/04/27 20:11:05;;;;;;;;;;;;;;;10.61;67.69;101479.75;4996143;28;1342;-91
2022/04/27 20:13:31;;;;;;;;;;;;;;;10.97;66.87;101478.19;5013467;28;878;-92
2022/04/27 20:15:56;;;;;;;;;;;;;;;10.91;66.32;101481.97;4996132;28;1315;-91
2022/04/27 20:18:21;;;;;;;;;;;;;;;10.87;65.89;101480.03;4996095;28;1328;-91
2022/04/27 20:20:46;;;;;;;;;;;;;;;10.93;65.41;101488.03;5013598;28;1894;-92
2022/04/27 20:23:12;;;;;;;;;;;;;;;10.37;67.59;101483.03;5005748;28;1523;-91
2022/04/27 20:25:40;;;;;;;;;;;;;;;10.46;67.11;101492.44;5035771;28;1246;-91
2022/04/27 20:28:08;;;;;;;;;;;;;;;10.58;66.69;101501.31;5019922;28;1208;-92
2022/04/27 20:30:35;;;;;;;;;;;;;;;10.50;67.09;101493.56;5019194;28;1320;-92
2022/04/27 20:33:00;;;;;;;;;;;;;;;10.65;65.94;101490.16;5019268;28;1232;-91
2022/04/27 20:35:25;;;;;;;;;;;;;;;10.07;67.28;101491.63;5019138;28;1302;-92
2022/04/27 20:37:50;;;;;;;;;;;;;;;10.33;68.45;101496.38;5019105;28;830;-92
2022/04/27 20:40:17;;;;;;;;;;;;;;;10.04;67.78;101505.78;5035786;28;1587;-89
2022/04/27 20:42:42;;;;;;;;;;;;;;;10.17;68.05;101497.22;4998913;28;1898;-91
2022/04/27 20:45:08;;;;;;;;;;;;;;;10.06;68.32;101498.16;5016074;28;1062;-92
2022/04/27 20:47:33;;;;;;;;;;;;;;;10.34;67.59;101506.25;5016671;28;1099;-91
2022/04/27 20:49:58;;;;;;;;;;;;;;;10.32;67.20;101507.56;4999351;28;1008;-92
2022/04/27 20:52:23;;;;;;;;;;;;;;;10.31;67.26;101514.13;5003928;28;1536;-90
2022/04/27 20:54:48;;;;;;;;;;;;;;;10.26;66.07;101508.59;5019401;28;818;-90
2022/04/27 20:57:18;;;;;;;;;;;;;;;10.23;67.64;101518.13;5037253;28;1078;-91
2022/04/27 20:59:44;;;;;;;;;;;;;;;10.44;66.54;101519.22;5019322;28;1273;-89
2022/04/27 21:02:09;;;;;;;;;;;;;;;10.42;66.61;101518.66;5018325;28;1970;-91
2022/04/27 21:04:35;;;;;;;;;;;;;;;10.37;67.34;101524.91;5018806;28;1303;-91
2022/04/27 21:07:01;;;;;;;;;;;;;;;10.28;67.50;101529.16;5018647;28;1205;-90
2022/04/27 21:09:26;;;;;;;;;;;;;;;10.26;66.66;101522.28;5018791;28;1702;-90
2022/04/27 21:11:51;;;;;;;;;;;;;;;10.09;67.00;101525.84;5019025;28;1229;-91
2022/04/27 21:14:16;;;;;;;;;;;;;;;10.07;66.78;101519.78;5018653;28;1348;-89
2022/04/27 21:16:42;;;;;;;;;;;;;;;9.77;68.27;101519.38;5018852;28;1502;-90
2022/04/27 21:19:08;;;;;;;;;;;;;;;9.78;67.24;101529.22;5019058;28;1433;-91
2022/04/27 21:21:33;;;;;;;;;;;;;;;9.72;67.66;101524.72;5018756;28;1870;-90
2022/04/27 21:23:58;;;;;;;;;;;;;;;9.67;67.96;101530.97;5018603;28;1204;-90
2022/04/27 21:26:24;;;;;;;;;;;;;;;9.93;67.20;101534.09;5018639;28;1336;-91
2022/04/27 21:28:49;;;;;;;;;;;;;;;10.15;66.72;101535.78;5018871;28;818;-90
2022/04/27 21:31:15;;;;;;;;;;;;;;;10.03;66.21;101536.97;5018412;28;1340;-90
2022/04/27 21:33:40;;;;;;;;;;;;;;;9.87;66.90;101530.44;5017328;28;1229;-90
2022/04/27 21:36:05;;;;;;;;;;;;;;;9.85;66.43;101541.66;5018560;28;1210;-89
2022/04/27 21:38:30;;;;;;;;;;;;;;;9.75;67.68;101546.13;5018371;28;1213;-90
2022/04/27 21:40:56;;;;;;;;;;;;;;;9.79;66.84;101545.34;5018108;28;1890;-90
2022/04/27 21:43:21;;;;;;;;;;;;;;;9.64;67.42;101552.50;5018167;28;1165;-91
2022/04/27 21:45:46;;;;;;;;;;;;;;;9.43;68.00;101554.91;5018086;28;1276;-91
2022/04/27 21:48:11;;;;;;;;;;;;;;;9.57;67.92;101555.41;5018066;28;1201;-90
2022/04/27 21:50:40;;;;;;;;;;;;;;;9.47;67.81;101563.41;5018281;28;1265;-90
2022/04/27 21:53:05;;;;;;;;;;;;;;;9.39;67.95;101558.38;5017989;28;1236;-90
2022/04/27 21:55:31;;;;;;;;;;;;;;;9.21;66.70;101564.03;5017982;28;1241;-90
2022/04/27 21:57:57;;;;;;;;;;;;;;;9.08;68.23;101557.81;5018257;28;1299;-90
2022/04/27 22:01:05;;;;;;;;;;;;;;;9.01;67.61;101567.25;5017846;28;1358;-90
2022/04/27 22:04:17;;;;;;;;;;;;;;;8.84;67.43;101563.63;5035309;28;1163;-90
2022/04/27 22:06:06;;;;;;;;;;;;;;;8.86;68.39;101575.13;5035188;28;1036;-90
2022/04/27 22:08:31;;;;;;;;;;;;;;;8.57;69.19;101571.53;5017733;28;1193;-90
2022/04/27 22:10:56;;;;;;;;;;;;;;;8.33;69.06;101565.31;5017775;28;1276;-90
2022/04/27 22:13:21;;;;;;;;;;;;;;;8.45;69.92;101566.09;5018053;28;1373;-90
2022/04/27 22:15:46;;;;;;;;;;;;;;;8.46;69.34;101573.22;5017593;28;1170;-91
2022/04/27 22:18:11;;;;;;;;;;;;;;;8.56;69.20;101570.72;5018521;28;984;-90
2022/04/27 22:20:37;;;;;;;;;;;;;;;8.76;69.45;101574.94;5019998;28;1859;-90
2022/04/27 22:23:02;;;;;;;;;;;;;;;8.38;69.74;101575.47;5021918;28;1178;-91
2022/04/27 22:25:27;;;;;;;;;;;;;;;8.79;70.30;101577.16;5017756;28;720;-91
2022/04/27 22:27:52;;;;;;;;;;;;;;;8.97;69.53;101585.16;5017369;28;1189;-90
2022/04/27 22:30:17;;;;;;;;;;;;;;;8.90;68.45;101587.22;5017304;28;1304;-90
2022/04/27 22:32:42;;;;;;;;;;;;;;;8.86;70.16;101577.84;5017399;28;1279;-91
2022/04/27 22:35:08;;;;;;;;;;;;;;;8.61;69.44;101579.00;5017521;28;1259;-90
2022/04/27 22:37:33;;;;;;;;;;;;;;;8.61;69.04;101589.06;5017268;28;1324;-90
2022/04/27 22:39:58;;;;;;;;;;;;;;;8.67;69.04;101591.69;5017159;28;1249;-90
2022/04/27 22:42:23;;;;;;;;;;;;;;;8.59;68.13;101593.97;5016844;28;1882;-90
2022/04/27 22:44:48;;;;;;;;;;;;;;;8.56;68.22;101586.25;5016862;28;1193;-90
2022/04/27 22:47:14;;;;;;;;;;;;;;;8.54;68.68;101589.22;5017094;28;1229;-91
2022/04/27 22:49:41;;;;;;;;;;;;;;;8.43;68.53;101590.06;5016963;28;1277;-90
2022/04/27 22:52:24;;;;;;;;;;;;;;;8.29;69.07;101594.09;5016809;28;1249;-91
2022/04/27 22:54:50;;;;;;;;;;;;;;;8.18;69.73;101595.75;5017021;28;1229;-90
2022/04/27 22:57:15;;;;;;;;;;;;;;;8.03;69.95;101597.28;5016774;28;1182;-90
2022/04/27 22:59:40;;;;;;;;;;;;;;;8.11;69.25;101595.03;5016626;28;1276;-90
2022/04/27 23:02:05;;;;;;;;;;;;;;;8.11;69.50;101594.22;5016641;28;1898;-91
2022/04/27 23:04:31;;;;;;;;;;;;;;;8.06;68.95;101596.81;5016905;28;1317;-90
2022/04/27 23:06:56;;;;;;;;;;;;;;;8.02;69.07;101590.19;5016783;28;1232;-91
2022/04/27 23:12:05;;;;;;;;;;;;;;;7.72;70.51;101593.84;5034681;28;1208;-90
2022/04/27 23:14:30;;;;;;;;;;;;;;;7.87;69.67;101596.09;5016563;28;1328;-91
2022/04/27 23:16:56;;;;;;;;;;;;;;;7.90;69.37;101596.47;5016916;28;996;-91
2022/04/27 23:19:22;;;;;;;;;;;;;;;7.79;69.63;101589.09;5016530;28;1366;-91
2022/04/27 23:21:47;;;;;;;;;;;;;;;7.72;70.14;101593.00;5016505;28;1906;-91
2022/04/27 23:24:12;;;;;;;;;;;;;;;7.78;70.24;101592.06;5016784;28;1024;-90
2022/04/27 23:26:37;;;;;;;;;;;;;;;7.88;70.64;101600.50;5016432;28;1233;-90
2022/04/27 23:29:03;;;;;;;;;;;;;;;7.95;70.11;101601.22;5016453;28;1334;-91
2022/04/27 23:31:28;;;;;;;;;;;;;;;7.88;69.77;101600.50;5016267;28;1181;-90
2022/04/27 23:33:53;;;;;;;;;;;;;;;7.80;69.87;101600.84;5016361;28;1303;-90
2022/04/27 23:36:18;;;;;;;;;;;;;;;7.75;69.92;101603.41;5016585;28;917;-91
2022/04/27 23:38:43;;;;;;;;;;;;;;;7.56;70.22;101608.16;5016446;28;1264;-91
2022/04/27 23:41:08;;;;;;;;;;;;;;;7.47;70.45;101604.94;5016232;28;1975;-92
2022/04/27 23:43:34;;;;;;;;;;;;;;;7.44;70.51;101605.38;5016513;28;1319;-91
2022/04/27 23:46:00;;;;;;;;;;;;;;;7.38;71.35;101610.94;5032762;28;1228;-91
2022/04/27 23:48:25;;;;;;;;;;;;;;;7.52;70.39;101609.66;5016232;28;1239;-90
2022/04/27 23:50:51;;;;;;;;;;;;;;;7.51;71.21;101608.00;5016145;28;1264;-91
2022/04/27 23:53:16;;;;;;;;;;;;;;;7.66;70.41;101608.38;5016166;28;1379;-91
2022/04/27 23:55:42;;;;;;;;;;;;;;;7.52;69.64;101601.50;5016588;28;1344;-92
2022/04/27 23:58:07;;;;;;;;;;;;;;;7.29;70.45;101602.28;5020082;28;1299;-91
